Time;durP1;ratioP1;P1;durP2;ratioP2;P2;SDS_P1;SDS_P2;PMS_P1;PMS_P2;Temp;Humidity;BMP_temperature;BMP_pressure;BME280_temperature;BME280_humidity;BME280_pressure;Samples;Min_cycle;Max_cycle;Signal;HPM_P1;HPM_P2
2022/03/18 00:02:22;;;;;;;0.40;0.30;;;;;;;8.56;92.47;103111.50;5052880;28;20504;-72
2022/03/18 00:04:50;;;;;;;0.40;0.30;;;;;;;8.50;91.68;103107.03;5052593;28;20442;-72
2022/03/18 00:07:18;;;;;;;0.40;0.30;;;;;;;8.44;92.21;103115.19;5052830;28;20466;-72
2022/03/18 00:09:44;;;;;;;0.40;0.30;;;;;;;8.37;92.83;103125.22;5052672;28;20534;-72
2022/03/18 00:12:11;;;;;;;0.40;0.30;;;;;;;8.39;92.81;103121.25;5052830;28;20484;-72
2022/03/18 00:14:39;;;;;;;0.40;0.30;;;;;;;8.41;92.19;103123.72;5052765;28;20891;-72
2022/03/18 00:17:06;;;;;;;0.40;0.30;;;;;;;8.39;92.06;103121.25;5052523;28;20481;-72
2022/03/18 00:19:33;;;;;;;0.40;0.27;;;;;;;8.30;92.88;103126.09;5052538;28;20892;-72
2022/03/18 00:22:02;;;;;;;0.40;0.30;;;;;;;8.26;93.31;103121.34;5052757;28;20533;-72
2022/03/18 00:24:31;;;;;;;0.40;0.30;;;;;;;8.29;93.53;103129.84;5052645;28;20473;-72
2022/03/18 00:26:58;;;;;;;0.40;0.30;;;;;;;8.35;93.27;103120.84;5052606;28;20473;-72
2022/03/18 00:29:25;;;;;;;0.67;0.53;;;;;;;8.44;92.47;103131.38;5052688;28;20442;-72
2022/03/18 00:31:51;;;;;;;0.40;0.30;;;;;;;8.32;92.23;103125.84;5052461;28;20450;-71
2022/03/18 00:34:18;;;;;;;0.40;0.30;;;;;;;8.48;91.84;103129.91;5052577;28;20447;-72
2022/03/18 00:36:44;;;;;;;0.50;0.43;;;;;;;8.45;91.25;103133.03;5052144;28;20797;-72
2022/03/18 00:39:13;;;;;;;0.40;0.30;;;;;;;8.42;90.85;103134.31;5052571;28;20802;-72
2022/03/18 00:41:39;;;;;;;0.40;0.30;;;;;;;8.43;90.54;103133.25;5052529;28;20450;-72
2022/03/18 00:44:06;;;;;;;0.40;0.30;;;;;;;8.42;90.53;103137.03;5052459;28;20492;-72
2022/03/18 00:46:33;;;;;;;0.40;0.30;;;;;;;8.39;90.20;103140.16;5052498;28;20438;-72
2022/03/18 00:54:28;;;;;;;0.50;0.47;;;;;;;8.31;90.11;103141.22;5056026;28;20475;-72
2022/03/18 00:56:55;;;;;;;0.40;0.30;;;;;;;8.30;89.90;103141.47;5055953;28;20462;-72
2022/03/18 00:59:21;;;;;;;0.40;0.30;;;;;;;8.29;89.74;103140.66;5055970;28;20442;-72
2022/03/18 01:01:52;;;;;;;0.40;0.30;;;;;;;8.26;88.94;103149.19;5055908;28;20850;-72
2022/03/18 01:04:18;;;;;;;0.40;0.30;;;;;;;8.15;89.44;103152.63;5055673;28;20478;-72
2022/03/18 01:06:44;;;;;;;0.40;0.30;;;;;;;8.25;89.15;103149.41;5055744;28;20492;-72
2022/03/18 01:09:11;;;;;;;0.40;0.30;;;;;;;8.31;89.04;103152.03;5055708;28;20455;-72
2022/03/18 01:11:39;;;;;;;0.40;0.30;;;;;;;8.33;88.66;103155.34;5055699;28;20442;-72
2022/03/18 01:14:05;;;;;;;0.40;0.30;;;;;;;8.28;88.25;103157.91;5055347;28;20453;-71
2022/03/18 01:16:32;;;;;;;0.40;0.20;;;;;;;8.38;87.60;103159.28;5055324;28;20954;-72
2022/03/18 01:18:58;;;;;;;0.40;0.30;;;;;;;8.32;87.71;103158.25;5055195;28;20984;-72
2022/03/18 01:21:25;;;;;;;0.40;0.30;;;;;;;8.22;87.46;103163.34;5055571;28;20449;-72
2022/03/18 01:23:51;;;;;;;0.40;0.30;;;;;;;8.25;87.67;103161.03;5055395;28;20485;-71
2022/03/18 01:26:18;;;;;;;0.40;0.30;;;;;;;8.25;87.77;103166.44;5055445;28;20450;-72
2022/03/18 01:28:45;;;;;;;0.40;0.30;;;;;;;8.38;87.70;103172.81;5055378;28;20466;-72
2022/03/18 01:31:12;;;;;;;0.40;0.30;;;;;;;8.36;87.31;103172.97;5055363;28;20446;-71
2022/03/18 01:33:38;;;;;;;0.40;0.30;;;;;;;8.33;87.33;103176.97;5055321;28;20542;-72
2022/03/18 01:36:06;;;;;;;0.40;0.30;;;;;;;8.39;86.92;103177.97;5055268;28;20453;-72
2022/03/18 01:38:32;;;;;;;0.40;0.20;;;;;;;8.39;86.78;103179.84;5054860;28;20458;-72
2022/03/18 01:40:59;;;;;;;0.40;0.30;;;;;;;8.48;86.64;103187.44;5054866;28;20993;-72
2022/03/18 01:43:25;;;;;;;0.40;0.30;;;;;;;8.47;86.02;103187.66;5055206;28;20839;-72
2022/03/18 01:45:53;;;;;;;0.40;0.30;;;;;;;8.47;85.12;103190.38;5055098;28;20438;-72
2022/03/18 01:48:19;;;;;;;0.40;0.27;;;;;;;8.35;85.52;103182.94;5055008;28;20492;-72
2022/03/18 01:50:47;;;;;;;0.40;0.30;;;;;;;8.21;85.80;103191.41;5055011;28;20453;-72
2022/03/18 01:53:13;;;;;;;0.40;0.30;;;;;;;8.23;85.62;103186.59;5055027;28;20508;-72
2022/03/18 01:55:39;;;;;;;0.40;0.20;;;;;;;8.28;85.03;103201.09;5054877;28;20445;-72
2022/03/18 01:58:06;;;;;;;0.40;0.30;;;;;;;8.28;84.81;103193.00;5054521;28;21002;-72
2022/03/18 02:00:32;;;;;;;0.40;0.30;;;;;;;8.34;84.36;103188.59;5054268;28;20449;-72
2022/03/18 02:03:00;;;;;;;0.40;0.30;;;;;;;8.22;84.60;103196.56;5054715;28;20489;-72
2022/03/18 02:05:27;;;;;;;0.40;0.30;;;;;;;8.20;84.87;103195.16;5054756;28;20853;-71
2022/03/18 02:07:53;;;;;;;0.40;0.30;;;;;;;8.22;84.78;103204.66;5054614;28;20461;-72
2022/03/18 02:10:20;;;;;;;0.40;0.30;;;;;;;8.26;84.41;103208.56;5054621;28;20446;-71
2022/03/18 02:12:47;;;;;;;0.40;0.30;;;;;;;8.33;84.11;103213.94;5054262;28;20921;-72
2022/03/18 02:15:13;;;;;;;0.40;0.30;;;;;;;8.36;83.97;103218.88;5054527;28;20808;-72
2022/03/18 02:17:40;;;;;;;0.40;0.30;;;;;;;8.35;83.52;103223.47;5054116;28;20473;-72
2022/03/18 02:20:09;;;;;;;1.83;1.73;;;;;;;8.35;83.90;103218.06;5054487;28;20524;-72
2022/03/18 02:22:39;;;;;;;0.40;0.30;;;;;;;8.40;84.27;103228.22;5054399;28;20449;-72
2022/03/18 02:25:09;;;;;;;0.40;0.30;;;;;;;8.46;83.57;103223.84;5054387;28;20456;-72
2022/03/18 02:27:36;;;;;;;0.40;0.27;;;;;;;8.28;83.79;103216.47;5053949;28;21014;-73
2022/03/18 02:30:03;;;;;;;0.40;0.30;;;;;;;8.28;84.00;103222.72;5054436;28;20446;-72
2022/03/18 02:32:31;;;;;;;0.40;0.30;;;;;;;8.37;83.67;103222.44;5054163;28;20446;-73
2022/03/18 02:34:57;;;;;;;0.40;0.30;;;;;;;8.43;82.98;103229.66;5054144;28;20492;-72
2022/03/18 02:37:24;;;;;;;0.40;0.20;;;;;;;8.43;83.25;103230.50;5054088;28;20482;-72
2022/03/18 02:39:52;;;;;;;0.40;0.30;;;;;;;8.32;83.24;103232.03;5054074;28;20873;-72
2022/03/18 02:42:18;;;;;;;0.40;0.30;;;;;;;8.30;83.13;103231.41;5054026;28;20438;-72
2022/03/18 02:44:45;;;;;;;0.40;0.30;;;;;;;8.29;83.15;103237.84;5053893;28;20493;-72
2022/03/18 02:47:11;;;;;;;0.40;0.30;;;;;;;8.40;82.83;103246.31;5053860;28;20458;-72
2022/03/18 02:49:37;;;;;;;0.40;0.30;;;;;;;8.44;82.66;103251.03;5053565;28;20955;-72
2022/03/18 02:52:05;;;;;;;0.40;0.30;;;;;;;8.50;82.38;103252.88;5053850;28;20525;-72
2022/03/18 02:54:32;;;;;;;0.40;0.30;;;;;;;8.48;82.35;103252.25;5053822;28;20442;-72
2022/03/18 02:57:00;;;;;;;0.40;0.20;;;;;;;8.49;81.91;103255.78;5053675;28;20476;-72
2022/03/18 02:59:27;;;;;;;0.40;0.20;;;;;;;8.34;81.14;103259.63;5053755;28;20508;-73
2022/03/18 03:01:53;;;;;;;0.40;0.30;;;;;;;8.32;81.37;103264.44;5053670;28;20442;-72
2022/03/18 03:04:20;;;;;;;1.23;1.23;;;;;;;8.36;81.50;103270.19;5053569;28;20626;-73
2022/03/18 03:09:30;;;;;;;0.40;0.30;;;;;;;8.25;80.90;103276.31;5053421;28;20409;-72
2022/03/18 03:11:57;;;;;;;0.40;0.30;;;;;;;8.32;80.86;103286.03;5052770;28;20445;-73
2022/03/18 03:14:25;;;;;;;0.40;0.20;;;;;;;8.34;80.65;103280.41;5053801;28;20477;-73
2022/03/18 03:16:51;;;;;;;0.40;0.30;;;;;;;8.30;80.28;103284.56;5053308;28;20462;-73
2022/03/18 03:19:18;;;;;;;0.40;0.20;;;;;;;8.36;80.91;103286.41;5053523;28;20433;-73
2022/03/18 03:21:44;;;;;;;0.40;0.30;;;;;;;8.33;81.37;103284.97;5053358;28;20457;-72
2022/03/18 03:24:11;;;;;;;0.40;0.30;;;;;;;8.35;81.25;103290.97;5053298;28;20509;-72
2022/03/18 03:26:37;;;;;;;0.40;0.30;;;;;;;8.24;81.35;103298.97;5053275;28;20492;-73
2022/03/18 03:29:03;;;;;;;0.40;0.30;;;;;;;8.21;81.72;103292.13;5053295;28;20442;-73
2022/03/18 03:31:31;;;;;;;0.40;0.40;;;;;;;8.26;81.45;103307.66;5053271;28;20454;-73
2022/03/18 03:33:58;;;;;;;0.40;0.30;;;;;;;8.09;81.68;103310.03;5053217;28;20474;-72
2022/03/18 03:36:24;;;;;;;0.40;0.30;;;;;;;8.05;81.83;103306.94;5052900;28;20861;-73
2022/03/18 03:38:51;;;;;;;0.40;0.30;;;;;;;7.97;82.28;103319.88;5053045;28;20458;-73
2022/03/18 03:41:20;;;;;;;0.40;0.30;;;;;;;7.99;81.91;103320.50;5052889;28;20487;-73
2022/03/18 03:43:47;;;;;;;0.40;0.30;;;;;;;8.14;82.17;103323.72;5053059;28;20517;-73
2022/03/18 03:46:13;;;;;;;0.40;0.30;;;;;;;8.21;81.06;103321.00;5053116;28;20437;-73
2022/03/18 03:48:41;;;;;;;0.40;0.20;;;;;;;8.26;80.80;103322.00;5052989;28;20462;-72
2022/03/18 03:51:07;;;;;;;0.40;0.30;;;;;;;8.29;80.33;103323.44;5053064;28;20453;-72
2022/03/18 03:53:34;;;;;;;0.40;0.30;;;;;;;8.31;79.43;103314.06;5053043;28;20442;-72
2022/03/18 03:56:00;;;;;;;0.40;0.30;;;;;;;8.31;79.68;103324.03;5052985;28;20442;-73
2022/03/18 03:58:27;;;;;;;0.40;0.30;;;;;;;8.26;80.02;103322.00;5052865;28;20461;-72
2022/03/18 04:00:53;;;;;;;0.40;0.30;;;;;;;8.21;80.57;103324.50;5052971;28;20508;-72
2022/03/18 04:03:20;;;;;;;0.40;0.30;;;;;;;8.13;80.39;103330.16;5052852;28;20457;-72
2022/03/18 04:05:48;;;;;;;0.40;0.30;;;;;;;8.00;80.90;103330.25;5052900;28;20450;-71
2022/03/18 04:08:15;;;;;;;0.40;0.30;;;;;;;7.82;81.55;103330.94;5052828;28;20557;-72
2022/03/18 04:10:42;;;;;;;0.40;0.30;;;;;;;7.83;81.36;103333.47;5052834;28;20450;-73
2022/03/18 04:13:09;;;;;;;0.40;0.30;;;;;;;7.74;81.00;103345.50;5052813;28;20446;-72
2022/03/18 04:15:35;;;;;;;0.40;0.30;;;;;;;7.73;80.82;103343.84;5052541;28;20849;-73
2022/03/18 04:18:02;;;;;;;0.40;0.30;;;;;;;7.55;81.16;103349.13;5052409;28;20539;-72
2022/03/18 04:20:30;;;;;;;0.40;0.20;;;;;;;7.41;82.21;103344.81;5052752;28;20444;-72
2022/03/18 04:22:57;;;;;;;0.40;0.30;;;;;;;7.26;83.03;103353.97;5053031;28;20480;-72
2022/03/18 04:25:24;;;;;;;0.40;0.30;;;;;;;7.44;82.61;103360.56;5056588;28;20555;-71
2022/03/18 04:27:50;;;;;;;0.40;0.30;;;;;;;7.52;82.09;103366.53;5056184;28;20462;-72
2022/03/18 04:30:17;;;;;;;0.40;0.30;;;;;;;7.36;81.63;103367.00;5056548;28;20445;-72
2022/03/18 04:32:44;;;;;;;0.40;0.27;;;;;;;7.11;82.15;103366.81;5056511;28;20476;-72
2022/03/18 04:35:11;;;;;;;0.40;0.30;;;;;;;6.96;82.66;103375.13;5056415;28;20834;-72
2022/03/18 04:37:40;;;;;;;0.40;0.30;;;;;;;6.88;82.89;103377.22;5056325;28;20470;-72
2022/03/18 04:40:09;;;;;;;0.40;0.30;;;;;;;6.75;83.54;103381.53;5056286;28;20441;-71
2022/03/18 04:42:36;;;;;;;0.40;0.30;;;;;;;6.76;83.59;103393.16;5055461;28;20806;-72
2022/03/18 04:45:02;;;;;;;0.40;0.30;;;;;;;6.87;83.25;103392.53;5056139;28;20485;-73
2022/03/18 04:47:30;;;;;;;0.40;0.30;;;;;;;6.86;82.66;103396.25;5056155;28;20457;-72
2022/03/18 04:49:57;;;;;;;0.40;0.30;;;;;;;6.79;83.07;103396.25;5056164;28;20453;-72
2022/03/18 04:52:23;;;;;;;0.40;0.30;;;;;;;6.77;83.04;103398.34;5056127;28;20511;-72
2022/03/18 04:54:50;;;;;;;0.40;0.20;;;;;;;6.80;83.08;103403.31;5056033;28;20556;-72
2022/03/18 04:57:18;;;;;;;0.40;0.20;;;;;;;6.65;83.33;103402.69;5055961;28;20473;-72
2022/03/18 04:59:46;;;;;;;0.40;0.30;;;;;;;6.54;83.89;103411.34;5055995;28;20453;-72
2022/03/18 05:02:12;;;;;;;0.40;0.30;;;;;;;6.46;84.17;103408.84;5055942;28;20430;-72
2022/03/18 05:04:39;;;;;;;0.40;0.30;;;;;;;6.37;84.36;103412.75;5055786;28;20482;-73
2022/03/18 05:07:06;;;;;;;0.40;0.30;;;;;;;6.22;84.48;103416.44;5055818;28;20473;-72
2022/03/18 05:09:32;;;;;;;0.40;0.20;;;;;;;6.18;84.70;103420.56;5055784;28;20568;-74
2022/03/18 05:11:59;;;;;;;0.40;0.30;;;;;;;6.08;85.32;103425.50;5055569;28;20977;-73
2022/03/18 05:14:27;;;;;;;0.40;0.20;;;;;;;6.01;85.81;103425.44;5055705;28;20875;-74
2022/03/18 05:16:53;;;;;;;0.40;0.30;;;;;;;5.99;85.28;103430.22;5055421;28;20872;-72
2022/03/18 05:19:19;;;;;;;0.40;0.30;;;;;;;5.84;86.76;103437.53;5055750;28;20426;-74
2022/03/18 05:21:46;;;;;;;0.40;0.30;;;;;;;5.63;87.88;103438.47;5056061;28;20461;-74
2022/03/18 05:24:12;;;;;;;0.40;0.30;;;;;;;5.57;88.67;103450.81;5055487;28;20604;-74
2022/03/18 05:26:40;;;;;;;0.40;0.30;;;;;;;5.72;87.86;103450.72;5055435;28;20446;-73
2022/03/18 05:29:06;;;;;;;0.40;0.30;;;;;;;5.57;88.87;103458.06;5055535;28;20541;-70
2022/03/18 05:31:35;;;;;;;0.40;0.27;;;;;;;5.52;88.97;103464.03;5055897;28;20943;-76
2022/03/18 05:34:01;;;;;;;0.40;0.30;;;;;;;5.53;89.38;103475.59;5055447;28;20446;-74
2022/03/18 05:36:28;;;;;;;0.40;0.30;;;;;;;5.51;89.54;103478.50;5054398;28;20449;-74
2022/03/18 05:38:55;;;;;;;0.40;0.30;;;;;;;5.53;89.67;103478.28;5054962;28;21214;-73
2022/03/18 05:41:21;;;;;;;0.40;0.30;;;;;;;5.46;89.76;103480.13;5055189;28;20457;-74
2022/03/18 05:43:47;;;;;;;0.40;0.30;;;;;;;5.41;90.62;103491.47;5055095;28;20500;-74
2022/03/18 05:46:14;;;;;;;0.40;0.30;;;;;;;5.51;90.06;103494.63;5055021;28;20823;-74
2022/03/18 05:48:42;;;;;;;0.40;0.30;;;;;;;5.49;90.15;103490.47;5054952;28;20458;-74
2022/03/18 05:51:13;;;;;;;0.40;0.30;;;;;;;5.53;89.76;103499.78;5054978;28;20446;-74
2022/03/18 05:53:39;;;;;;;0.40;0.30;;;;;;;5.44;90.55;103504.47;5054844;28;20419;-74
2022/03/18 05:58:51;;;;;;;0.40;0.33;;;;;;;5.41;90.60;103512.13;5056040;28;21014;-74
2022/03/18 06:01:17;;;;;;;0.40;0.30;;;;;;;5.47;90.69;103514.03;5054539;28;20823;-74
2022/03/18 06:03:46;;;;;;;0.40;0.30;;;;;;;5.55;90.41;103508.53;5054785;28;20446;-74
2022/03/18 06:06:12;;;;;;;0.40;0.30;;;;;;;5.42;90.13;103516.47;5054684;28;20527;-74
2022/03/18 06:14:20;;;;;;;0.40;0.30;;;;;;;5.34;90.68;103524.66;4973672;28;20517;-74
2022/03/18 06:16:48;;;;;;;0.40;0.30;;;;;;;5.37;90.64;103533.19;5034821;28;20477;-74
2022/03/18 06:19:17;;;;;;;0.40;0.30;;;;;;;5.40;90.66;103527.44;5054504;28;20453;-74
2022/03/18 06:21:44;;;;;;;0.40;0.30;;;;;;;5.36;90.82;103533.34;5054470;28;20508;-74
2022/03/18 06:24:11;;;;;;;0.40;0.30;;;;;;;5.37;90.79;103543.09;5054344;28;20491;-74
2022/03/18 06:26:37;;;;;;;2.10;2.00;;;;;;;5.44;90.75;103547.50;5054335;28;20862;-71
2022/03/18 06:29:05;;;;;;;2.40;2.30;;;;;;;5.43;90.36;103542.31;5054423;28;20449;-72
2022/03/18 06:31:31;;;;;;;0.40;0.30;;;;;;;5.44;90.87;103552.88;5054259;28;20433;-72
2022/03/18 06:33:58;;;;;;;0.40;0.30;;;;;;;5.51;90.54;103552.94;5054193;28;20449;-72
2022/03/18 06:36:26;;;;;;;0.40;0.30;;;;;;;5.62;90.00;103549.72;5054188;28;20854;-72
2022/03/18 06:38:52;;;;;;;0.40;0.20;;;;;;;5.62;89.45;103559.63;5053642;28;20941;-72
2022/03/18 06:41:20;;;;;;;0.40;0.30;;;;;;;5.57;89.80;103554.84;5054003;28;20491;-72
2022/03/18 06:43:47;;;;;;;0.40;0.30;;;;;;;5.64;89.60;103555.75;5053960;28;20880;-72
2022/03/18 06:46:14;;;;;;;0.40;0.30;;;;;;;5.74;89.22;103564.28;5053805;28;20493;-72
2022/03/18 06:48:40;;;;;;;0.40;0.30;;;;;;;5.77;88.71;103566.59;5053828;28;20516;-72
2022/03/18 06:51:07;;;;;;;0.40;0.30;;;;;;;5.81;87.81;103570.56;5053839;28;20449;-72
2022/03/18 06:53:35;;;;;;;0.40;0.30;;;;;;;5.66;87.73;103569.81;5053860;28;20442;-71
2022/03/18 06:56:04;;;;;;;0.40;0.20;;;;;;;5.77;87.46;103582.75;5053825;28;20821;-71
2022/03/18 06:58:30;;;;;;;0.40;0.30;;;;;;;5.78;87.30;103573.66;5053729;28;20541;-72
2022/03/18 07:00:57;;;;;;;0.40;0.30;;;;;;;5.86;87.63;103585.28;5053359;28;20500;-70
2022/03/18 07:03:24;;;;;;;0.40;0.30;;;;;;;5.77;87.44;103577.38;5053693;28;20449;-72
2022/03/18 07:05:50;;;;;;;0.40;0.30;;;;;;;5.66;87.83;103577.06;5053548;28;20486;-71
2022/03/18 07:08:17;;;;;;;0.40;0.30;;;;;;;5.67;88.08;103579.56;5053422;28;20467;-73
2022/03/18 07:10:45;;;;;;;0.40;0.30;;;;;;;5.66;88.17;103577.88;5053262;28;21041;-71
2022/03/18 07:13:11;;;;;;;0.40;0.30;;;;;;;5.52;88.10;103585.00;5053377;28;20492;-74
2022/03/18 07:15:38;;;;;;;0.40;0.30;;;;;;;5.54;88.69;103591.03;5053421;28;20434;-73
2022/03/18 07:18:04;;;;;;;0.40;0.30;;;;;;;5.72;88.32;103585.19;5053051;28;20489;-76
2022/03/18 07:20:32;;;;;;;0.40;0.30;;;;;;;5.79;88.09;103588.75;5053510;28;20453;-76
2022/03/18 07:23:03;;;;;;;0.40;0.30;;;;;;;5.77;87.49;103592.69;5053341;28;20446;-75
2022/03/18 07:25:31;;;;;;;0.40;0.30;;;;;;;5.92;87.44;103596.13;5053234;28;20481;-76
2022/03/18 07:27:59;;;;;;;0.40;0.30;;;;;;;6.04;87.27;103599.94;5053147;28;20500;-76
2022/03/18 07:30:26;;;;;;;0.40;0.30;;;;;;;6.06;86.43;103597.06;5053211;28;20442;-76
2022/03/18 07:32:52;;;;;;;0.40;0.30;;;;;;;6.18;86.31;103608.94;5053194;28;20446;-75
2022/03/18 07:35:19;;;;;;;0.40;0.30;;;;;;;6.17;85.44;103615.38;5053314;28;20438;-76
2022/03/18 07:37:47;;;;;;;0.40;0.30;;;;;;;6.19;85.55;103618.66;5052909;28;21049;-75
2022/03/18 07:40:15;;;;;;;0.40;0.30;;;;;;;6.30;85.37;103618.13;5053168;28;20823;-73
2022/03/18 07:42:43;;;;;;;0.40;0.20;;;;;;;6.34;84.46;103623.13;5053134;28;20456;-73
2022/03/18 07:45:12;;;;;;;0.40;0.30;;;;;;;6.47;84.06;103626.75;5052993;28;20537;-74
2022/03/18 07:47:38;;;;;;;0.40;0.30;;;;;;;6.49;84.14;103630.06;5053004;28;20462;-74
2022/03/18 07:50:06;;;;;;;0.40;0.30;;;;;;;6.65;83.79;103644.25;5053126;28;20446;-73
2022/03/18 07:52:33;;;;;;;0.40;0.30;;;;;;;6.76;82.94;103639.09;5052720;28;20430;-74
2022/03/18 07:54:59;;;;;;;0.40;0.30;;;;;;;6.93;82.86;103633.38;5052911;28;20446;-73
2022/03/18 07:57:26;;;;;;;0.40;0.30;;;;;;;7.06;82.52;103636.13;5052664;28;20470;-74
2022/03/18 07:59:52;;;;;;;0.40;0.30;;;;;;;7.08;79.89;103642.13;5056258;28;20802;-74
2022/03/18 08:02:20;;;;;;;0.40;0.30;;;;;;;7.16;80.34;103647.34;5057029;28;20464;-72
2022/03/18 08:04:51;;;;;;;0.40;0.30;;;;;;;7.31;80.45;103641.81;5056965;28;20540;-74
2022/03/18 08:07:17;;;;;;;0.40;0.30;;;;;;;7.43;80.22;103650.13;5056636;28;21018;-73
2022/03/18 08:09:44;;;;;;;0.40;0.30;;;;;;;7.53;78.75;103654.09;5056493;28;20973;-73
2022/03/18 08:12:11;;;;;;;0.40;0.30;;;;;;;7.60;78.56;103662.19;5056902;28;20442;-73
2022/03/18 08:14:38;;;;;;;0.40;0.30;;;;;;;7.70;78.09;103659.09;5056804;28;20442;-73
2022/03/18 08:17:05;;;;;;;0.40;0.30;;;;;;;7.62;76.16;103665.53;5056521;28;20512;-72
2022/03/18 08:19:33;;;;;;;0.40;0.30;;;;;;;7.49;76.41;103660.94;5056642;28;20550;-73
2022/03/18 08:22:01;;;;;;;0.40;0.30;;;;;;;7.67;76.82;103654.13;5056779;28;20450;-72
2022/03/18 08:24:28;;;;;;;0.40;0.30;;;;;;;7.74;76.27;103655.78;5056705;28;20442;-73
2022/03/18 08:26:55;;;;;;;0.40;0.30;;;;;;;7.71;75.59;103660.78;5056508;28;20481;-72
2022/03/18 08:29:21;;;;;;;0.40;0.30;;;;;;;7.81;75.70;103672.81;5056343;28;20493;-71
2022/03/18 08:31:48;;;;;;;0.40;0.27;;;;;;;7.92;75.24;103675.94;5056469;28;20527;-72
2022/03/18 08:34:15;;;;;;;0.40;0.30;;;;;;;7.99;74.78;103672.22;5056407;28;20442;-72
2022/03/18 08:36:43;;;;;;;0.63;0.63;;;;;;;7.93;74.64;103678.44;5056017;28;20442;-73
2022/03/18 08:39:09;;;;;;;0.40;0.30;;;;;;;8.02;74.47;103682.59;5056351;28;20448;-73
2022/03/18 08:41:36;;;;;;;0.40;0.30;;;;;;;8.08;74.49;103692.56;5056256;28;20444;-72
2022/03/18 08:44:03;;;;;;;0.40;0.30;;;;;;;8.06;73.37;103694.66;5056364;28;20825;-73
2022/03/18 08:46:29;;;;;;;0.40;0.30;;;;;;;8.09;73.43;103698.78;5055835;28;21007;-74
2022/03/18 08:48:56;;;;;;;0.40;0.20;;;;;;;8.18;72.79;103711.03;5056195;28;20442;-76
2022/03/18 08:51:22;;;;;;;0.40;0.30;;;;;;;8.25;72.34;103714.59;5056159;28;20452;-76
2022/03/18 08:53:50;;;;;;;0.40;0.30;;;;;;;8.37;73.16;103708.56;5055849;28;20936;-75
2022/03/18 08:56:16;;;;;;;0.40;0.30;;;;;;;8.49;72.72;103717.72;5056152;28;20438;-75
2022/03/18 08:58:43;;;;;;;0.40;0.30;;;;;;;8.55;70.80;103715.00;5056006;28;20473;-75
2022/03/18 09:01:09;;;;;;;0.40;0.30;;;;;;;8.67;70.97;103709.78;5056015;28;20450;-75
2022/03/18 09:03:36;;;;;;;0.40;0.30;;;;;;;8.73;70.83;103711.66;5055628;28;20454;-75
2022/03/18 09:06:03;;;;;;;0.53;0.53;;;;;;;8.71;69.39;103723.69;5055820;28;20535;-75
2022/03/18 09:08:30;;;;;;;0.40;0.30;;;;;;;8.75;70.03;103717.66;5055827;28;20474;-75
2022/03/18 09:10:57;;;;;;;0.40;0.30;;;;;;;8.81;71.40;103716.00;5054459;28;20431;-75
2022/03/18 09:13:24;;;;;;;0.40;0.30;;;;;;;8.94;72.21;103718.69;5055705;28;20453;-74
2022/03/18 09:15:51;;;;;;;0.40;0.30;;;;;;;9.04;71.30;103729.88;5055705;28;20438;-74
2022/03/18 09:18:18;;;;;;;0.40;0.30;;;;;;;9.10;70.31;103729.00;5055309;28;20496;-75
2022/03/18 09:20:44;;;;;;;0.40;0.30;;;;;;;9.17;69.78;103725.47;5055590;28;20489;-74
2022/03/18 09:23:11;;;;;;;0.40;0.30;;;;;;;9.27;70.18;103728.53;5055633;28;20473;-74
2022/03/18 09:25:37;;;;;;;0.40;0.30;;;;;;;9.39;69.30;103736.81;5055263;28;20497;-74
2022/03/18 09:28:05;;;;;;;0.40;0.30;;;;;;;9.46;67.94;103737.59;5055418;28;20493;-75
2022/03/18 09:30:32;;;;;;;0.40;0.30;;;;;;;9.54;68.17;103727.34;5055428;28;20453;-74
2022/03/18 09:32:58;;;;;;;0.40;0.30;;;;;;;9.64;69.24;103732.28;5055402;28;20858;-75
2022/03/18 09:35:25;;;;;;;0.40;0.30;;;;;;;9.64;68.63;103735.00;5055395;28;20446;-75
2022/03/18 09:37:52;;;;;;;0.40;0.30;;;;;;;9.60;68.35;103731.06;5055266;28;20466;-75
2022/03/18 09:40:18;;;;;;;0.40;0.30;;;;;;;9.62;67.32;103731.69;5055247;28;20492;-75
2022/03/18 09:42:56;;;;;;;0.40;0.30;;;;;;;9.67;67.32;103740.00;5055203;28;20442;-75
2022/03/18 09:45:25;;;;;;;0.40;0.30;;;;;;;9.62;65.57;103753.34;5055154;28;20485;-74
2022/03/18 09:47:52;;;;;;;0.40;0.30;;;;;;;9.65;66.50;103747.50;5055094;28;20560;-75
2022/03/18 09:50:20;;;;;;;0.40;0.30;;;;;;;9.65;65.29;103761.03;5054800;28;20454;-75
2022/03/18 09:52:47;;;;;;;0.40;0.30;;;;;;;9.64;66.02;103756.66;5054748;28;20447;-75
2022/03/18 09:55:14;;;;;;;0.40;0.20;;;;;;;9.71;64.58;103753.94;5054781;28;20494;-75
2022/03/18 09:57:40;;;;;;;0.40;0.30;;;;;;;9.64;65.59;103763.94;5055035;28;20462;-75
2022/03/18 10:00:08;;;;;;;0.40;0.30;;;;;;;9.77;63.81;103744.94;5055005;28;20449;-71
2022/03/18 10:02:36;;;;;;;0.40;0.30;;;;;;;9.88;63.57;103751.53;5037236;28;20469;-75
2022/03/18 10:05:06;;;;;;;0.40;0.30;;;;;;;9.71;63.45;103746.63;5054947;28;20696;-75
2022/03/18 10:07:33;;;;;;;0.40;0.30;;;;;;;9.85;64.29;103752.78;5054374;28;21003;-76
2022/03/18 10:10:14;;;;;;;0.40;0.30;;;;;;;9.82;63.36;103754.06;5054205;28;20454;-76
2022/03/18 10:12:42;;;;;;;0.40;0.30;;;;;;;9.80;62.88;103750.75;5054549;28;20434;-75
2022/03/18 10:15:15;;;;;;;0.40;0.30;;;;;;;9.88;62.08;103751.53;5053928;28;20442;-76
2022/03/18 10:17:45;;;;;;;0.40;0.30;;;;;;;9.93;61.64;103757.97;5053510;28;20489;-75
2022/03/18 10:20:33;;;;;;;0.40;0.30;;;;;;;9.99;61.23;103757.06;5053857;28;20484;-75
2022/03/18 10:23:05;;;;;;;0.50;0.40;;;;;;;10.03;61.61;103761.00;5054048;28;20445;-75
2022/03/18 10:25:50;;;;;;;0.40;0.30;;;;;;;10.17;61.31;103761.75;5053904;28;20553;-75
2022/03/18 10:28:17;;;;;;;0.40;0.30;;;;;;;10.30;61.34;103758.13;5054270;28;20474;-75
2022/03/18 10:30:44;;;;;;;0.50;0.40;;;;;;;10.30;59.09;103760.84;5053743;28;20435;-75
2022/03/18 10:33:11;;;;;;;0.40;0.30;;;;;;;10.46;61.00;103756.75;5053838;28;20438;-75
2022/03/18 10:38:27;;;;;;;0.40;0.30;;;;;;;10.77;57.71;103756.66;5053708;28;20495;-76
2022/03/18 10:40:55;;;;;;;0.40;0.30;;;;;;;10.79;54.82;103751.84;5053654;28;20879;-75
2022/03/18 10:43:22;;;;;;;0.40;0.30;;;;;;;10.96;55.83;103751.25;5053567;28;20489;-75
2022/03/18 10:46:04;;;;;;;0.40;0.30;;;;;;;11.08;56.19;103744.88;5053840;28;20497;-76
2022/03/18 10:48:33;;;;;;;0.40;0.20;;;;;;;11.27;55.41;103753.81;5051314;28;20825;-76
2022/03/18 10:51:06;;;;;;;0.40;0.30;;;;;;;11.30;54.34;103761.50;5054017;28;20873;-75
2022/03/18 10:53:34;;;;;;;0.40;0.30;;;;;;;11.49;54.19;103756.06;5053911;28;20488;-76
2022/03/18 10:56:02;;;;;;;0.47;0.40;;;;;;;11.70;53.67;103763.72;5053678;28;20453;-76
2022/03/18 10:58:31;;;;;;;0.40;0.30;;;;;;;11.81;52.02;103752.03;5053770;28;20466;-76
2022/03/18 11:01:03;;;;;;;0.40;0.30;;;;;;;12.06;51.33;103768.22;5053693;28;20450;-76
2022/03/18 11:03:32;;;;;;;0.40;0.30;;;;;;;12.20;50.68;103760.69;5053797;28;20430;-76
2022/03/18 11:06:02;;;;;;;0.40;0.20;;;;;;;12.25;50.32;103763.53;5053608;28;20489;-76
2022/03/18 11:08:36;;;;;;;0.40;0.27;;;;;;;12.27;48.03;103764.13;5053548;28;20497;-76
2022/03/18 11:11:10;;;;;;;0.40;0.30;;;;;;;12.38;49.74;103763.31;5053452;28;21010;-75
2022/03/18 11:13:42;;;;;;;0.40;0.23;;;;;;;12.53;50.17;103767.47;5053629;28;20437;-75
2022/03/18 11:16:11;;;;;;;0.40;0.20;;;;;;;12.68;50.60;103756.94;5053275;28;20912;-76
2022/03/18 11:18:40;;;;;;;0.40;0.30;;;;;;;12.84;48.66;103767.13;5053123;28;20513;-75
2022/03/18 11:21:09;;;;;;;0.40;0.30;;;;;;;12.96;48.37;103766.25;5053484;28;20449;-75
2022/03/18 11:23:39;;;;;;;0.40;0.20;;;;;;;13.26;48.15;103766.94;5053473;28;20466;-75
2022/03/18 11:26:06;;;;;;;0.40;0.20;;;;;;;13.82;46.77;103750.88;5053063;28;20930;-76
2022/03/18 11:28:33;;;;;;;0.40;0.20;;;;;;;14.30;45.32;103758.53;5053140;28;20458;-76
2022/03/18 11:31:05;;;;;;;0.40;0.30;;;;;;;15.11;42.11;103747.97;5052661;28;20533;-76
2022/03/18 11:33:32;;;;;;;0.40;0.30;;;;;;;16.24;40.67;103755.44;5052437;28;20446;-77
2022/03/18 11:36:15;;;;;;;0.40;0.30;;;;;;;17.20;37.24;103754.41;5053193;28;20442;-74
2022/03/18 11:38:57;;;;;;;0.40;0.30;;;;;;;18.08;37.88;103756.25;5052887;28;20493;-76
2022/03/18 11:41:28;;;;;;;0.40;0.30;;;;;;;19.09;35.43;103765.44;5052512;28;20426;-76
2022/03/18 11:43:56;;;;;;;0.40;0.30;;;;;;;19.83;32.62;103763.66;5052993;28;20449;-75
2022/03/18 11:46:27;;;;;;;0.40;0.20;;;;;;;19.89;32.11;103768.84;5053032;28;20485;-76
2022/03/18 11:48:55;;;;;;;0.40;0.30;;;;;;;18.68;33.78;103757.28;5053198;28;20470;-76
2022/03/18 11:51:29;;;;;;;0.40;0.30;;;;;;;19.08;33.30;103759.13;5052830;28;20948;-77
2022/03/18 11:53:59;;;;;;;0.40;0.30;;;;;;;19.53;33.25;103765.50;5052960;28;20427;-76